sensor_id;sensor_type;location;lat;lon;timestamp;temperature;humidity
15821;DHT22;8011;51.650;7.240;2022-12-18T00:01:04;-5.50;99.90
15821;DHT22;8011;51.650;7.240;2022-12-18T00:03:35;-5.60;99.90
15821;DHT22;8011;51.650;7.240;2022-12-18T00:06:01;-5.60;99.90
15821;DHT22;8011;51.650;7.240;2022-12-18T00:08:27;-5.70;99.90
15821;DHT22;8011;51.650;7.240;2022-12-18T00:10:53;-5.80;99.90
15821;DHT22;8011;51.650;7.240;2022-12-18T00:13:19;-5.70;99.90
15821;DHT22;8011;51.650;7.240;2022-12-18T00:15:45;-5.70;99.90
15821;DHT22;8011;51.650;7.240;2022-12-18T00:18:10;-5.80;99.90
15821;DHT22;8011;51.650;7.240;2022-12-18T00:20:37;-5.80;99.90
15821;DHT22;8011;51.650;7.240;2022-12-18T00:23:06;-5.70;99.90
15821;DHT22;8011;51.650;7.240;2022-12-18T00:25:35;-5.70;99.90
15821;DHT22;8011;51.650;7.240;2022-12-18T00:28:03;-5.70;99.90
15821;DHT22;8011;51.650;7.240;2022-12-18T00:30:28;-5.60;99.90
15821;DHT22;8011;51.650;7.240;2022-12-18T00:32:54;-5.60;99.90
15821;DHT22;8011;51.650;7.240;2022-12-18T00:35:20;-5.60;99.90
15821;DHT22;8011;51.650;7.240;2022-12-18T00:37:52;-5.60;99.90
15821;DHT22;8011;51.650;7.240;2022-12-18T00:40:17;-5.70;99.90
15821;DHT22;8011;51.650;7.240;2022-12-18T00:42:43;-5.70;99.90
15821;DHT22;8011;51.650;7.240;2022-12-18T00:45:23;-5.70;99.90
15821;DHT22;8011;51.650;7.240;2022-12-18T00:47:49;-5.80;99.90
15821;DHT22;8011;51.650;7.240;2022-12-18T00:50:15;-5.80;99.90
15821;DHT22;8011;51.650;7.240;2022-12-18T00:52:41;-5.90;99.90
15821;DHT22;8011;51.650;7.240;2022-12-18T00:55:07;-5.90;99.90
15821;DHT22;8011;51.650;7.240;2022-12-18T00:57:33;-5.90;99.90
15821;DHT22;8011;51.650;7.240;2022-12-18T00:59:59;-5.90;99.90
15821;DHT22;8011;51.650;7.240;2022-12-18T04:01:08;-5.90;99.90
15821;DHT22;8011;51.650;7.240;2022-12-18T04:03:35;-5.90;99.90
15821;DHT22;8011;51.650;7.240;2022-12-18T04:06:02;-5.80;99.90
15821;DHT22;8011;51.650;7.240;2022-12-18T04:08:29;-5.80;99.90
15821;DHT22;8011;51.650;7.240;2022-12-18T04:10:56;-5.70;99.90
15821;DHT22;8011;51.650;7.240;2022-12-18T04:13:32;-5.80;99.90
15821;DHT22;8011;51.650;7.240;2022-12-18T04:15:59;-5.80;99.90
15821;DHT22;8011;51.650;7.240;2022-12-18T04:18:28;-5.70;99.90
15821;DHT22;8011;51.650;7.240;2022-12-18T04:20:53;-5.60;99.90
15821;DHT22;8011;51.650;7.240;2022-12-18T04:23:19;-5.80;99.90
15821;DHT22;8011;51.650;7.240;2022-12-18T04:25:47;-5.80;99.90
15821;DHT22;8011;51.650;7.240;2022-12-18T04:28:13;-5.80;99.90
15821;DHT22;8011;51.650;7.240;2022-12-18T04:30:41;-5.80;99.90
15821;DHT22;8011;51.650;7.240;2022-12-18T04:33:12;-5.80;99.90
15821;DHT22;8011;51.650;7.240;2022-12-18T04:35:39;-5.80;99.90
15821;DHT22;8011;51.650;7.240;2022-12-18T04:38:06;-5.80;99.90
15821;DHT22;8011;51.650;7.240;2022-12-18T04:40:35;-5.80;99.90
15821;DHT22;8011;51.650;7.240;2022-12-18T04:43:01;-5.80;99.90
15821;DHT22;8011;51.650;7.240;2022-12-18T04:45:27;-5.80;99.90
15821;DHT22;8011;51.650;7.240;2022-12-18T04:47:53;-5.70;99.90
15821;DHT22;8011;51.650;7.240;2022-12-18T04:50:18;-5.80;99.90
15821;DHT22;8011;51.650;7.240;2022-12-18T04:52:44;-5.80;99.90
15821;DHT22;8011;51.650;7.240;2022-12-18T04:55:10;-5.80;99.90
15821;DHT22;8011;51.650;7.240;2022-12-18T04:57:35;-5.80;99.90
15821;DHT22;8011;51.650;7.240;2022-12-18T05:00:04;-5.80;99.90
15821;DHT22;8011;51.650;7.240;2022-12-18T05:02:33;-5.80;99.90
15821;DHT22;8011;51.650;7.240;2022-12-18T05:04:59;-5.80;99.90
15821;DHT22;8011;51.650;7.240;2022-12-18T05:07:26;-5.80;99.90
15821;DHT22;8011;51.650;7.240;2022-12-18T05:09:52;-5.80;99.90
15821;DHT22;8011;51.650;7.240;2022-12-18T05:12:18;-5.80;99.90
15821;DHT22;8011;51.650;7.240;2022-12-18T05:14:43;-5.80;99.90
15821;DHT22;8011;51.650;7.240;2022-12-18T05:17:12;-5.80;99.90
15821;DHT22;8011;51.650;7.240;2022-12-18T05:19:38;-5.80;99.90
15821;DHT22;8011;51.650;7.240;2022-12-18T05:22:04;-5.80;99.90
15821;DHT22;8011;51.650;7.240;2022-12-18T05:24:29;-5.80;99.90
15821;DHT22;8011;51.650;7.240;2022-12-18T05:26:55;-5.70;99.90
15821;DHT22;8011;51.650;7.240;2022-12-18T05:29:21;-5.60;99.90
15821;DHT22;8011;51.650;7.240;2022-12-18T05:31:49;-5.70;99.90
15821;DHT22;8011;51.650;7.240;2022-12-18T05:34:15;-5.80;99.90
15821;DHT22;8011;51.650;7.240;2022-12-18T05:36:40;-5.70;99.90
15821;DHT22;8011;51.650;7.240;2022-12-18T05:39:06;-5.70;99.90
15821;DHT22;8011;51.650;7.240;2022-12-18T05:41:32;-5.70;99.90
15821;DHT22;8011;51.650;7.240;2022-12-18T05:43:58;-5.80;99.90
15821;DHT22;8011;51.650;7.240;2022-12-18T05:46:24;-5.80;99.90
15821;DHT22;8011;51.650;7.240;2022-12-18T05:48:50;-5.70;99.90
15821;DHT22;8011;51.650;7.240;2022-12-18T05:51:21;-5.70;99.90
15821;DHT22;8011;51.650;7.240;2022-12-18T05:53:47;-5.80;99.90
15821;DHT22;8011;51.650;7.240;2022-12-18T05:56:19;-5.70;99.90
15821;DHT22;8011;51.650;7.240;2022-12-18T05:58:46;-5.70;99.90
15821;DHT22;8011;51.650;7.240;2022-12-18T06:01:18;-5.70;99.90
15821;DHT22;8011;51.650;7.240;2022-12-18T06:03:43;-5.70;99.90
15821;DHT22;8011;51.650;7.240;2022-12-18T06:06:22;-5.60;99.90
15821;DHT22;8011;51.650;7.240;2022-12-18T06:08:49;-5.60;99.90
15821;DHT22;8011;51.650;7.240;2022-12-18T06:11:18;-5.60;99.90
15821;DHT22;8011;51.650;7.240;2022-12-18T06:13:44;-5.60;99.90
15821;DHT22;8011;51.650;7.240;2022-12-18T06:16:13;-5.70;99.90
15821;DHT22;8011;51.650;7.240;2022-12-18T06:18:38;-5.60;99.90
15821;DHT22;8011;51.650;7.240;2022-12-18T06:21:04;-5.60;99.90
15821;DHT22;8011;51.650;7.240;2022-12-18T06:23:33;-5.60;99.90
15821;DHT22;8011;51.650;7.240;2022-12-18T06:26:02;-5.60;99.90
15821;DHT22;8011;51.650;7.240;2022-12-18T06:28:28;-5.60;99.90
15821;DHT22;8011;51.650;7.240;2022-12-18T06:30:54;-5.60;99.90
15821;DHT22;8011;51.650;7.240;2022-12-18T06:33:26;-5.50;99.90
15821;DHT22;8011;51.650;7.240;2022-12-18T06:35:53;-5.50;99.90
15821;DHT22;8011;51.650;7.240;2022-12-18T06:38:19;-5.40;99.90
15821;DHT22;8011;51.650;7.240;2022-12-18T06:40:45;-5.40;99.90
15821;DHT22;8011;51.650;7.240;2022-12-18T06:43:10;-5.40;99.90
15821;DHT22;8011;51.650;7.240;2022-12-18T06:45:36;-5.30;99.90
15821;DHT22;8011;51.650;7.240;2022-12-18T06:48:02;-5.30;99.90
15821;DHT22;8011;51.650;7.240;2022-12-18T06:50:31;-5.30;99.90
15821;DHT22;8011;51.650;7.240;2022-12-18T06:52:56;-5.30;99.90
15821;DHT22;8011;51.650;7.240;2022-12-18T06:55:22;-5.30;99.90
15821;DHT22;8011;51.650;7.240;2022-12-18T06:57:48;-5.20;99.90
15821;DHT22;8011;51.650;7.240;2022-12-18T07:00:14;-5.20;99.90
15821;DHT22;8011;51.650;7.240;2022-12-18T07:02:42;-5.20;99.90
15821;DHT22;8011;51.650;7.240;2022-12-18T07:05:08;-5.20;99.90
15821;DHT22;8011;51.650;7.240;2022-12-18T07:07:34;-5.10;99.90
15821;DHT22;8011;51.650;7.240;2022-12-18T07:10:00;-5.20;99.90
15821;DHT22;8011;51.650;7.240;2022-12-18T07:12:29;-5.20;99.90
15821;DHT22;8011;51.650;7.240;2022-12-18T07:14:55;-5.20;99.90
15821;DHT22;8011;51.650;7.240;2022-12-18T07:17:26;-5.20;99.90
15821;DHT22;8011;51.650;7.240;2022-12-18T07:19:52;-5.20;99.90
15821;DHT22;8011;51.650;7.240;2022-12-18T07:22:17;-5.30;99.90
15821;DHT22;8011;51.650;7.240;2022-12-18T07:24:43;-5.20;99.90
15821;DHT22;8011;51.650;7.240;2022-12-18T07:27:09;-5.30;99.90
15821;DHT22;8011;51.650;7.240;2022-12-18T07:29:34;-5.30;99.90
15821;DHT22;8011;51.650;7.240;2022-12-18T07:32:00;-5.30;99.90
15821;DHT22;8011;51.650;7.240;2022-12-18T07:34:26;-5.30;99.90
15821;DHT22;8011;51.650;7.240;2022-12-18T07:36:54;-5.40;99.90
15821;DHT22;8011;51.650;7.240;2022-12-18T07:39:20;-5.40;99.90
15821;DHT22;8011;51.650;7.240;2022-12-18T07:41:45;-5.30;99.90
15821;DHT22;8011;51.650;7.240;2022-12-18T07:44:31;-5.40;99.90
15821;DHT22;8011;51.650;7.240;2022-12-18T07:46:59;-5.40;99.90
15821;DHT22;8011;51.650;7.240;2022-12-18T07:49:25;-5.40;99.90
15821;DHT22;8011;51.650;7.240;2022-12-18T07:51:50;-5.40;99.90
15821;DHT22;8011;51.650;7.240;2022-12-18T07:54:16;-5.40;99.90
15821;DHT22;8011;51.650;7.240;2022-12-18T07:56:42;-5.30;99.90
15821;DHT22;8011;51.650;7.240;2022-12-18T07:59:07;-5.20;99.90
15821;DHT22;8011;51.650;7.240;2022-12-18T08:01:33;-5.40;99.90
15821;DHT22;8011;51.650;7.240;2022-12-18T08:03:59;-5.30;99.90
15821;DHT22;8011;51.650;7.240;2022-12-18T08:06:25;-5.40;99.90
15821;DHT22;8011;51.650;7.240;2022-12-18T08:08:52;-5.30;99.90
15821;DHT22;8011;51.650;7.240;2022-12-18T08:11:23;-5.30;99.90
15821;DHT22;8011;51.650;7.240;2022-12-18T08:13:49;-5.30;99.90
15821;DHT22;8011;51.650;7.240;2022-12-18T08:16:15;-5.30;99.90
15821;DHT22;8011;51.650;7.240;2022-12-18T08:18:41;-5.20;99.90
15821;DHT22;8011;51.650;7.240;2022-12-18T08:21:11;-5.20;99.90
15821;DHT22;8011;51.650;7.240;2022-12-18T08:23:38;-5.20;99.90
15821;DHT22;8011;51.650;7.240;2022-12-18T08:26:07;-5.10;99.90
15821;DHT22;8011;51.650;7.240;2022-12-18T08:28:33;-5.10;99.90
15821;DHT22;8011;51.650;7.240;2022-12-18T08:31:00;-4.90;99.90
15821;DHT22;8011;51.650;7.240;2022-12-18T08:33:25;-4.90;99.90
15821;DHT22;8011;51.650;7.240;2022-12-18T08:35:52;-4.90;99.90
15821;DHT22;8011;51.650;7.240;2022-12-18T08:38:18;-4.90;99.90
15821;DHT22;8011;51.650;7.240;2022-12-18T08:40:43;-4.80;99.90
15821;DHT22;8011;51.650;7.240;2022-12-18T08:43:10;-4.70;99.90
15821;DHT22;8011;51.650;7.240;2022-12-18T08:45:55;-4.60;99.90
15821;DHT22;8011;51.650;7.240;2022-12-18T08:48:21;-4.70;99.90
15821;DHT22;8011;51.650;7.240;2022-12-18T08:50:57;-4.70;99.90
15821;DHT22;8011;51.650;7.240;2022-12-18T08:53:25;-4.60;99.90
15821;DHT22;8011;51.650;7.240;2022-12-18T08:55:51;-4.60;99.90
15821;DHT22;8011;51.650;7.240;2022-12-18T08:58:17;-4.50;99.90
15821;DHT22;8011;51.650;7.240;2022-12-18T09:00:43;-4.50;99.90
15821;DHT22;8011;51.650;7.240;2022-12-18T09:03:16;-4.40;99.90
15821;DHT22;8011;51.650;7.240;2022-12-18T09:05:42;-4.40;99.90
15821;DHT22;8011;51.650;7.240;2022-12-18T09:08:08;-4.40;99.90
15821;DHT22;8011;51.650;7.240;2022-12-18T09:10:40;-4.30;99.90
15821;DHT22;8011;51.650;7.240;2022-12-18T09:13:06;-4.30;99.90
15821;DHT22;8011;51.650;7.240;2022-12-18T09:15:32;-4.30;99.90
15821;DHT22;8011;51.650;7.240;2022-12-18T09:17:58;-4.20;99.90
15821;DHT22;8011;51.650;7.240;2022-12-18T09:20:23;-4.10;99.90
15821;DHT22;8011;51.650;7.240;2022-12-18T09:22:49;-4.10;99.90
15821;DHT22;8011;51.650;7.240;2022-12-18T09:25:18;-4.00;99.90
15821;DHT22;8011;51.650;7.240;2022-12-18T09:27:47;-4.00;99.90
15821;DHT22;8011;51.650;7.240;2022-12-18T09:30:12;-3.90;99.90
15821;DHT22;8011;51.650;7.240;2022-12-18T09:32:38;-3.80;99.90
15821;DHT22;8011;51.650;7.240;2022-12-18T09:35:04;-3.80;99.90
15821;DHT22;8011;51.650;7.240;2022-12-18T09:37:30;-3.70;99.90
15821;DHT22;8011;51.650;7.240;2022-12-18T09:39:56;-3.70;99.90
15821;DHT22;8011;51.650;7.240;2022-12-18T09:42:22;-3.60;99.90
15821;DHT22;8011;51.650;7.240;2022-12-18T09:44:53;-3.60;99.90
15821;DHT22;8011;51.650;7.240;2022-12-18T09:47:30;-3.60;99.90
15821;DHT22;8011;51.650;7.240;2022-12-18T09:50:01;-3.50;99.90
15821;DHT22;8011;51.650;7.240;2022-12-18T09:52:42;-3.50;99.90
15821;DHT22;8011;51.650;7.240;2022-12-18T09:55:40;-3.40;99.90
15821;DHT22;8011;51.650;7.240;2022-12-18T10:00:53;-3.40;99.90
15821;DHT22;8011;51.650;7.240;2022-12-18T10:03:19;-3.30;99.90
15821;DHT22;8011;51.650;7.240;2022-12-18T10:09:24;-3.20;99.90
15821;DHT22;8011;51.650;7.240;2022-12-18T10:12:34;-3.20;99.90
15821;DHT22;8011;51.650;7.240;2022-12-18T10:20:18;-3.00;99.90
15821;DHT22;8011;51.650;7.240;2022-12-18T10:23:04;-3.00;99.90
15821;DHT22;8011;51.650;7.240;2022-12-18T10:26:10;-2.90;99.90
15821;DHT22;8011;51.650;7.240;2022-12-18T10:28:39;-2.80;99.90
15821;DHT22;8011;51.650;7.240;2022-12-18T10:31:21;-2.80;99.90
15821;DHT22;8011;51.650;7.240;2022-12-18T10:33:47;-2.70;99.90
15821;DHT22;8011;51.650;7.240;2022-12-18T10:36:14;-2.60;99.90
15821;DHT22;8011;51.650;7.240;2022-12-18T10:38:42;-2.60;99.90
15821;DHT22;8011;51.650;7.240;2022-12-18T10:43:42;-2.50;99.90
15821;DHT22;8011;51.650;7.240;2022-12-18T10:51:08;-2.40;99.90
15821;DHT22;8011;51.650;7.240;2022-12-18T10:53:36;-2.40;99.90
15821;DHT22;8011;51.650;7.240;2022-12-18T10:56:04;-2.30;99.90
15821;DHT22;8011;51.650;7.240;2022-12-18T10:58:36;-2.20;99.90
15821;DHT22;8011;51.650;7.240;2022-12-18T11:01:03;-2.20;99.90
15821;DHT22;8011;51.650;7.240;2022-12-18T11:03:45;-2.20;99.90
15821;DHT22;8011;51.650;7.240;2022-12-18T11:06:14;-2.10;99.90
15821;DHT22;8011;51.650;7.240;2022-12-18T11:08:59;-2.10;99.90
15821;DHT22;8011;51.650;7.240;2022-12-18T11:11:25;-2.00;99.90
15821;DHT22;8011;51.650;7.240;2022-12-18T11:14:18;-2.00;99.90
15821;DHT22;8011;51.650;7.240;2022-12-18T11:16:47;-1.90;99.90
15821;DHT22;8011;51.650;7.240;2022-12-18T11:19:31;-1.90;99.90
15821;DHT22;8011;51.650;7.240;2022-12-18T11:21:59;-1.80;99.90
15821;DHT22;8011;51.650;7.240;2022-12-18T11:24:31;-1.80;99.90
15821;DHT22;8011;51.650;7.240;2022-12-18T11:27:17;-1.80;99.90
15821;DHT22;8011;51.650;7.240;2022-12-18T11:29:44;-1.60;99.90
15821;DHT22;8011;51.650;7.240;2022-12-18T11:37:29;-1.60;99.90
15821;DHT22;8011;51.650;7.240;2022-12-18T11:40:01;-1.60;99.90
15821;DHT22;8011;51.650;7.240;2022-12-18T11:42:54;-1.50;99.90
15821;DHT22;8011;51.650;7.240;2022-12-18T11:45:30;-1.50;99.90
15821;DHT22;8011;51.650;7.240;2022-12-18T11:51:02;-1.40;99.90
15821;DHT22;8011;51.650;7.240;2022-12-18T11:53:30;-1.30;99.90
15821;DHT22;8011;51.650;7.240;2022-12-18T11:56:31;-1.30;99.90
15821;DHT22;8011;51.650;7.240;2022-12-18T12:04:25;-1.20;99.90
15821;DHT22;8011;51.650;7.240;2022-12-18T12:09:30;-1.10;99.90
15821;DHT22;8011;51.650;7.240;2022-12-18T12:12:33;-1.00;99.90
15821;DHT22;8011;51.650;7.240;2022-12-18T12:26:36;-0.80;99.90
15821;DHT22;8011;51.650;7.240;2022-12-18T12:29:15;-0.70;99.90
15821;DHT22;8011;51.650;7.240;2022-12-18T12:32:12;-0.70;99.90
15821;DHT22;8011;51.650;7.240;2022-12-18T12:37:55;-0.70;99.90
15821;DHT22;8011;51.650;7.240;2022-12-18T12:40:25;-0.60;99.90
15821;DHT22;8011;51.650;7.240;2022-12-18T12:43:21;-0.60;99.90
15821;DHT22;8011;51.650;7.240;2022-12-18T12:45:55;-0.60;99.90
15821;DHT22;8011;51.650;7.240;2022-12-18T12:48:49;-0.50;99.90
15821;DHT22;8011;51.650;7.240;2022-12-18T12:51:26;-0.60;99.90
15821;DHT22;8011;51.650;7.240;2022-12-18T12:53:54;-0.50;99.90
15821;DHT22;8011;51.650;7.240;2022-12-18T12:56:26;-0.50;99.90
15821;DHT22;8011;51.650;7.240;2022-12-18T12:59:15;-0.40;99.90
15821;DHT22;8011;51.650;7.240;2022-12-18T13:04:56;-0.40;99.90
15821;DHT22;8011;51.650;7.240;2022-12-18T13:07:32;-0.40;99.90
15821;DHT22;8011;51.650;7.240;2022-12-18T13:13:12;-0.30;99.90
15821;DHT22;8011;51.650;7.240;2022-12-18T13:15:47;-0.40;99.90
15821;DHT22;8011;51.650;7.240;2022-12-18T13:18:24;-0.30;99.90
15821;DHT22;8011;51.650;7.240;2022-12-18T13:21:18;-0.30;99.90
15821;DHT22;8011;51.650;7.240;2022-12-18T13:23:46;-0.30;99.90
15821;DHT22;8011;51.650;7.240;2022-12-18T13:33:44;-0.20;99.90
15821;DHT22;8011;51.650;7.240;2022-12-18T13:39:15;-0.20;99.90
15821;DHT22;8011;51.650;7.240;2022-12-18T13:45:00;-0.20;99.90
15821;DHT22;8011;51.650;7.240;2022-12-18T13:47:34;-0.10;99.90
15821;DHT22;8011;51.650;7.240;2022-12-18T13:50:10;-0.10;99.90
15821;DHT22;8011;51.650;7.240;2022-12-18T13:52:39;-0.10;99.90
15821;DHT22;8011;51.650;7.240;2022-12-18T13:55:10;-0.10;99.90
15821;DHT22;8011;51.650;7.240;2022-12-18T13:57:40;-0.10;99.90
15821;DHT22;8011;51.650;7.240;2022-12-18T14:00:32;-0.10;99.90
15821;DHT22;8011;51.650;7.240;2022-12-18T14:02:59;-0.10;99.90
15821;DHT22;8011;51.650;7.240;2022-12-18T14:05:28;-0.10;99.90
15821;DHT22;8011;51.650;7.240;2022-12-18T14:08:18;-0.10;99.90
15821;DHT22;8011;51.650;7.240;2022-12-18T14:10:46;-0.10;99.90
15821;DHT22;8011;51.650;7.240;2022-12-18T14:13:30;-0.10;99.90
15821;DHT22;8011;51.650;7.240;2022-12-18T14:15:57;-0.10;99.90
15821;DHT22;8011;51.650;7.240;2022-12-18T14:21:05;-0.20;99.90
15821;DHT22;8011;51.650;7.240;2022-12-18T14:23:40;-0.20;99.90
15821;DHT22;8011;51.650;7.240;2022-12-18T14:26:28;-0.20;99.90
15821;DHT22;8011;51.650;7.240;2022-12-18T14:28:55;-0.20;99.90
15821;DHT22;8011;51.650;7.240;2022-12-18T14:31:27;-0.20;99.90
15821;DHT22;8011;51.650;7.240;2022-12-18T14:33:54;-0.20;99.90
15821;DHT22;8011;51.650;7.240;2022-12-18T14:36:29;-0.20;99.90
15821;DHT22;8011;51.650;7.240;2022-12-18T14:38:57;-0.30;99.90
15821;DHT22;8011;51.650;7.240;2022-12-18T14:41:23;-0.30;99.90
15821;DHT22;8011;51.650;7.240;2022-12-18T14:43:53;-0.20;99.90
15821;DHT22;8011;51.650;7.240;2022-12-18T14:46:29;-0.30;99.90
15821;DHT22;8011;51.650;7.240;2022-12-18T14:48:56;-0.30;99.90
15821;DHT22;8011;51.650;7.240;2022-12-18T14:51:24;-0.30;99.90
15821;DHT22;8011;51.650;7.240;2022-12-18T14:56:36;-0.20;99.90
15821;DHT22;8011;51.650;7.240;2022-12-18T15:01:35;-0.10;99.90
15821;DHT22;8011;51.650;7.240;2022-12-18T15:04:03;-0.20;99.90
15821;DHT22;8011;51.650;7.240;2022-12-18T15:06:39;-0.20;99.90
15821;DHT22;8011;51.650;7.240;2022-12-18T15:09:23;-0.10;99.90
15821;DHT22;8011;51.650;7.240;2022-12-18T15:11:57;-0.10;99.90
15821;DHT22;8011;51.650;7.240;2022-12-18T15:14:43;-0.10;99.90
15821;DHT22;8011;51.650;7.240;2022-12-18T15:17:18;0.10;99.90
15821;DHT22;8011;51.650;7.240;2022-12-18T15:19:46;-0.10;99.90
15821;DHT22;8011;51.650;7.240;2022-12-18T15:22:29;0.00;99.90
15821;DHT22;8011;51.650;7.240;2022-12-18T15:24:56;0.00;99.90
15821;DHT22;8011;51.650;7.240;2022-12-18T15:27:35;0.10;99.90
15821;DHT22;8011;51.650;7.240;2022-12-18T15:32:36;0.00;99.90
15821;DHT22;8011;51.650;7.240;2022-12-18T15:35:21;0.00;99.90
15821;DHT22;8011;51.650;7.240;2022-12-18T15:37:48;0.00;99.90
15821;DHT22;8011;51.650;7.240;2022-12-18T15:43:09;0.10;99.90
15821;DHT22;8011;51.650;7.240;2022-12-18T15:45:54;0.10;99.90
15821;DHT22;8011;51.650;7.240;2022-12-18T15:48:21;0.10;99.90
15821;DHT22;8011;51.650;7.240;2022-12-18T15:50:48;0.10;99.90
15821;DHT22;8011;51.650;7.240;2022-12-18T15:53:14;0.10;99.90
15821;DHT22;8011;51.650;7.240;2022-12-18T15:55:39;0.10;99.90
15821;DHT22;8011;51.650;7.240;2022-12-18T15:58:23;0.20;99.90
15821;DHT22;8011;51.650;7.240;2022-12-18T16:00:49;0.20;99.90
15821;DHT22;8011;51.650;7.240;2022-12-18T16:03:15;0.20;99.90
15821;DHT22;8011;51.650;7.240;2022-12-18T16:05:40;0.20;99.90
15821;DHT22;8011;51.650;7.240;2022-12-18T16:08:09;0.20;99.90
15821;DHT22;8011;51.650;7.240;2022-12-18T16:10:34;0.20;99.90
15821;DHT22;8011;51.650;7.240;2022-12-18T16:13:00;0.30;99.90
15821;DHT22;8011;51.650;7.240;2022-12-18T16:15:28;0.30;99.90
15821;DHT22;8011;51.650;7.240;2022-12-18T16:17:54;0.30;99.90
15821;DHT22;8011;51.650;7.240;2022-12-18T16:20:21;0.40;99.90
15821;DHT22;8011;51.650;7.240;2022-12-18T16:22:48;0.40;99.90
15821;DHT22;8011;51.650;7.240;2022-12-18T16:25:23;0.50;99.90
15821;DHT22;8011;51.650;7.240;2022-12-18T16:27:50;0.50;99.90
15821;DHT22;8011;51.650;7.240;2022-12-18T16:30:18;0.50;99.90
15821;DHT22;8011;51.650;7.240;2022-12-18T16:32:44;0.60;99.90
15821;DHT22;8011;51.650;7.240;2022-12-18T16:35:11;0.50;99.90
15821;DHT22;8011;51.650;7.240;2022-12-18T16:37:38;0.60;99.90
15821;DHT22;8011;51.650;7.240;2022-12-18T16:40:09;0.60;99.90
15821;DHT22;8011;51.650;7.240;2022-12-18T16:42:36;0.60;99.90
15821;DHT22;8011;51.650;7.240;2022-12-18T16:45:03;0.70;99.90
15821;DHT22;8011;51.650;7.240;2022-12-18T16:47:29;0.70;99.90
15821;DHT22;8011;51.650;7.240;2022-12-18T16:49:55;0.80;99.90
15821;DHT22;8011;51.650;7.240;2022-12-18T16:52:21;0.70;99.90
15821;DHT22;8011;51.650;7.240;2022-12-18T16:54:46;0.70;99.90
15821;DHT22;8011;51.650;7.240;2022-12-18T16:57:14;0.80;99.90
15821;DHT22;8011;51.650;7.240;2022-12-18T16:59:40;0.80;99.90
15821;DHT22;8011;51.650;7.240;2022-12-18T17:02:21;0.80;99.90
15821;DHT22;8011;51.650;7.240;2022-12-18T17:04:47;0.80;99.90
15821;DHT22;8011;51.650;7.240;2022-12-18T17:07:16;0.80;99.90
15821;DHT22;8011;51.650;7.240;2022-12-18T17:09:41;1.00;99.90
15821;DHT22;8011;51.650;7.240;2022-12-18T17:12:07;0.90;99.90
15821;DHT22;8011;51.650;7.240;2022-12-18T17:14:34;0.90;99.90
15821;DHT22;8011;51.650;7.240;2022-12-18T17:17:00;0.90;99.90
15821;DHT22;8011;51.650;7.240;2022-12-18T17:19:26;1.00;99.90
15821;DHT22;8011;51.650;7.240;2022-12-18T17:21:52;1.00;99.90
15821;DHT22;8011;51.650;7.240;2022-12-18T17:24:19;1.00;99.90
15821;DHT22;8011;51.650;7.240;2022-12-18T17:26:45;1.00;99.90
15821;DHT22;8011;51.650;7.240;2022-12-18T17:29:16;1.00;99.90
15821;DHT22;8011;51.650;7.240;2022-12-18T17:31:44;1.00;99.90
15821;DHT22;8011;51.650;7.240;2022-12-18T17:34:11;1.00;99.90
15821;DHT22;8011;51.650;7.240;2022-12-18T17:36:37;1.10;99.90
15821;DHT22;8011;51.650;7.240;2022-12-18T17:39:07;1.10;99.90
15821;DHT22;8011;51.650;7.240;2022-12-18T17:41:33;1.10;99.90
15821;DHT22;8011;51.650;7.240;2022-12-18T17:44:02;1.10;99.90
15821;DHT22;8011;51.650;7.240;2022-12-18T17:46:30;1.10;99.90
15821;DHT22;8011;51.650;7.240;2022-12-18T17:49:00;1.10;99.90
15821;DHT22;8011;51.650;7.240;2022-12-18T17:51:27;1.10;99.90
15821;DHT22;8011;51.650;7.240;2022-12-18T17:53:53;1.10;99.90
15821;DHT22;8011;51.650;7.240;2022-12-18T17:56:21;1.20;99.90
15821;DHT22;8011;51.650;7.240;2022-12-18T17:58:48;1.10;99.90
15821;DHT22;8011;51.650;7.240;2022-12-18T18:01:24;1.20;99.90
15821;DHT22;8011;51.650;7.240;2022-12-18T18:03:50;1.20;99.90
15821;DHT22;8011;51.650;7.240;2022-12-18T18:06:16;1.20;99.90
15821;DHT22;8011;51.650;7.240;2022-12-18T18:08:42;1.10;99.90
15821;DHT22;8011;51.650;7.240;2022-12-18T18:11:12;1.10;99.90
15821;DHT22;8011;51.650;7.240;2022-12-18T18:13:58;1.20;99.90
15821;DHT22;8011;51.650;7.240;2022-12-18T18:16:44;1.20;99.90
15821;DHT22;8011;51.650;7.240;2022-12-18T18:19:13;1.20;99.90
15821;DHT22;8011;51.650;7.240;2022-12-18T18:21:41;1.20;99.90
15821;DHT22;8011;51.650;7.240;2022-12-18T18:24:08;1.20;99.90
15821;DHT22;8011;51.650;7.240;2022-12-18T18:26:35;1.20;99.90
15821;DHT22;8011;51.650;7.240;2022-12-18T18:29:01;1.20;99.90
15821;DHT22;8011;51.650;7.240;2022-12-18T18:31:29;1.20;99.90
15821;DHT22;8011;51.650;7.240;2022-12-18T18:33:55;1.20;99.90
15821;DHT22;8011;51.650;7.240;2022-12-18T18:36:22;1.20;99.90
15821;DHT22;8011;51.650;7.240;2022-12-18T18:38:49;1.20;99.90
15821;DHT22;8011;51.650;7.240;2022-12-18T18:41:15;1.20;99.90
15821;DHT22;8011;51.650;7.240;2022-12-18T18:43:41;1.20;99.90
15821;DHT22;8011;51.650;7.240;2022-12-18T18:46:10;1.30;99.90
15821;DHT22;8011;51.650;7.240;2022-12-18T18:48:36;1.20;99.90
15821;DHT22;8011;51.650;7.240;2022-12-18T18:51:04;1.30;99.90
15821;DHT22;8011;51.650;7.240;2022-12-18T18:53:35;1.30;99.90
15821;DHT22;8011;51.650;7.240;2022-12-18T18:56:01;1.30;99.90
15821;DHT22;8011;51.650;7.240;2022-12-18T18:58:28;1.30;99.90
15821;DHT22;8011;51.650;7.240;2022-12-18T19:00:55;1.30;99.90
15821;DHT22;8011;51.650;7.240;2022-12-18T19:03:21;1.30;99.90
15821;DHT22;8011;51.650;7.240;2022-12-18T19:05:53;1.30;99.90
15821;DHT22;8011;51.650;7.240;2022-12-18T19:08:21;1.30;99.90
15821;DHT22;8011;51.650;7.240;2022-12-18T19:10:46;1.30;99.90
15821;DHT22;8011;51.650;7.240;2022-12-18T19:13:12;1.30;99.90
15821;DHT22;8011;51.650;7.240;2022-12-18T19:15:50;1.30;99.90
15821;DHT22;8011;51.650;7.240;2022-12-18T19:18:16;1.30;99.90
15821;DHT22;8011;51.650;7.240;2022-12-18T19:20:42;1.30;99.90
15821;DHT22;8011;51.650;7.240;2022-12-18T19:23:08;1.20;99.90
15821;DHT22;8011;51.650;7.240;2022-12-18T19:25:38;1.30;99.90
15821;DHT22;8011;51.650;7.240;2022-12-18T19:28:05;1.40;99.90
15821;DHT22;8011;51.650;7.240;2022-12-18T19:30:31;1.30;99.90
15821;DHT22;8011;51.650;7.240;2022-12-18T19:32:57;1.40;99.90
15821;DHT22;8011;51.650;7.240;2022-12-18T19:35:22;1.40;99.90
15821;DHT22;8011;51.650;7.240;2022-12-18T19:37:51;1.30;99.90
15821;DHT22;8011;51.650;7.240;2022-12-18T19:40:17;1.30;99.90
15821;DHT22;8011;51.650;7.240;2022-12-18T19:42:43;1.30;99.90
15821;DHT22;8011;51.650;7.240;2022-12-18T19:45:09;1.30;99.90
15821;DHT22;8011;51.650;7.240;2022-12-18T19:47:35;1.30;99.90
15821;DHT22;8011;51.650;7.240;2022-12-18T19:50:01;1.30;99.90
15821;DHT22;8011;51.650;7.240;2022-12-18T19:52:30;1.30;99.90
15821;DHT22;8011;51.650;7.240;2022-12-18T19:54:55;1.30;99.90
15821;DHT22;8011;51.650;7.240;2022-12-18T19:57:21;1.30;99.90
15821;DHT22;8011;51.650;7.240;2022-12-18T19:59:47;1.40;99.90
15821;DHT22;8011;51.650;7.240;2022-12-18T20:02:13;1.40;99.90
15821;DHT22;8011;51.650;7.240;2022-12-18T20:04:39;1.40;99.90
15821;DHT22;8011;51.650;7.240;2022-12-18T20:07:05;1.40;99.90
15821;DHT22;8011;51.650;7.240;2022-12-18T20:09:31;1.40;99.90
15821;DHT22;8011;51.650;7.240;2022-12-18T20:11:57;1.40;99.90
15821;DHT22;8011;51.650;7.240;2022-12-18T20:14:23;1.50;99.90
15821;DHT22;8011;51.650;7.240;2022-12-18T20:16:48;1.40;99.90
15821;DHT22;8011;51.650;7.240;2022-12-18T20:19:14;1.40;99.90
15821;DHT22;8011;51.650;7.240;2022-12-18T20:21:40;1.40;99.90
15821;DHT22;8011;51.650;7.240;2022-12-18T20:24:07;1.40;99.90
15821;DHT22;8011;51.650;7.240;2022-12-18T20:26:33;1.40;99.90